Akiak Airport


Codes: PFAK/AKI
Name: Akiak Airport
City: Akiak
Country: United States
Elevation: 30 ft.
Wikipedia:

Photos at Akiak Airport


   Photos courtesy of SpottingLog. You can add your own sightings and photos by signing up for a free trial today.



No photos found.

Weather at Akiak Airport


Time (UTC)DescriptionTempratureWindCloud coverageVisibilityPressureHumidity
21-Jun-2024 12:00Overcast Clouds10°C7 mph, SE100%10000m1014hPa96%
21-Jun-2024 15:00Overcast Clouds11°C0 mph, NE100%10000m1014hPa94%
21-Jun-2024 18:00Overcast Clouds13°C2 mph, NW100%10000m1014hPa84%
21-Jun-2024 21:00Overcast Clouds17°C4 mph, NW99%10000m1014hPa63%
22-Jun-2024 00:00Light Rain18°C4 mph, W99%10000m1014hPa54%
22-Jun-2024 03:00Overcast Clouds20°C4 mph, W100%10000m1013hPa46%
22-Jun-2024 06:00Light Rain17°C11 mph, N100%10000m1014hPa70%
22-Jun-2024 09:00Light Rain13°C9 mph, NW100%10000m1015hPa85%
22-Jun-2024 12:00Overcast Clouds12°C11 mph, NW100%10000m1015hPa78%
22-Jun-2024 15:00Overcast Clouds11°C9 mph, NW91%10000m1015hPa76%
22-Jun-2024 18:00Broken Clouds14°C11 mph, NW72%10000m1015hPa59%
22-Jun-2024 21:00Few Clouds18°C11 mph, NW16%10000m1015hPa47%
23-Jun-2024 00:00Few Clouds21°C13 mph, NW12%10000m1014hPa43%
23-Jun-2024 03:00Broken Clouds19°C13 mph, N84%10000m1013hPa50%
23-Jun-2024 06:00Broken Clouds17°C16 mph, N65%10000m1014hPa57%
23-Jun-2024 09:00Clear Sky12°C13 mph, NW5%10000m1014hPa66%
23-Jun-2024 12:00Clear Sky9°C11 mph, NW7%10000m1014hPa78%
23-Jun-2024 15:00Few Clouds8°C9 mph, NW11%10000m1014hPa79%
23-Jun-2024 18:00Scattered Clouds13°C11 mph, NW32%10000m1014hPa61%
23-Jun-2024 21:00Few Clouds17°C13 mph, NW14%10000m1013hPa52%
24-Jun-2024 00:00Scattered Clouds18°C18 mph, NW27%10000m1012hPa53%
24-Jun-2024 03:00Overcast Clouds15°C11 mph, N95%10000m1012hPa64%
24-Jun-2024 06:00Overcast Clouds14°C11 mph, NW92%10000m1012hPa70%
24-Jun-2024 09:00Overcast Clouds13°C7 mph, NW100%10000m1012hPa73%
24-Jun-2024 12:00Overcast Clouds11°C11 mph, NW100%10000m1013hPa64%
24-Jun-2024 15:00Overcast Clouds10°C9 mph, NW100%10000m1013hPa66%
24-Jun-2024 18:00Overcast Clouds11°C9 mph, NW100%10000m1014hPa66%
24-Jun-2024 21:00Broken Clouds14°C7 mph, W84%10000m1014hPa60%
25-Jun-2024 00:00Broken Clouds18°C2 mph, N81%10000m1013hPa51%
25-Jun-2024 03:00Broken Clouds19°C2 mph, E72%10000m1013hPa54%
25-Jun-2024 06:00Overcast Clouds17°C4 mph, S86%10000m1013hPa61%
25-Jun-2024 09:00Overcast Clouds15°C4 mph, N97%10000m1013hPa66%
25-Jun-2024 12:00Overcast Clouds13°C7 mph, N96%10000m1014hPa70%
25-Jun-2024 15:00Overcast Clouds13°C4 mph, N98%10000m1014hPa69%
25-Jun-2024 18:00Overcast Clouds16°C4 mph, N90%10000m1014hPa61%
25-Jun-2024 21:00Broken Clouds19°C4 mph, NE75%10000m1014hPa53%
26-Jun-2024 00:00Broken Clouds21°C2 mph, E80%10000m1013hPa44%
26-Jun-2024 03:00Overcast Clouds21°C4 mph, S100%10000m1012hPa52%
26-Jun-2024 06:00Overcast Clouds19°C9 mph, SW100%10000m1012hPa59%
26-Jun-2024 09:00Overcast Clouds14°C11 mph, SW100%10000m1013hPa71%